Time;durP1;ratioP1;P1;durP2;ratioP2;P2;SDS_P1;SDS_P2;PMS_P1;PMS_P2;Temp;Humidity;BMP_temperature;BMP_pressure;BME280_temperature;BME280_humidity;BME280_pressure;Samples;Min_cycle;Max_cycle;Signal;HPM_P1;HPM_P2
2022/09/11 00:00:13;;;;;;;16.73;8.35;;;;;;;;;;5001505;28;20113;-66
2022/09/11 00:02:39;;;;;;;11.98;6.93;;;;;;;;;;5006888;28;20101;-66
2022/09/11 00:05:05;;;;;;;16.45;7.57;;;;;;;;;;4995465;28;20026;-66
2022/09/11 00:07:31;;;;;;;10.93;7.00;;;;;;;;;;5007459;28;20418;-66
2022/09/11 00:09:57;;;;;;;14.02;6.60;;;;;;;;;;5000633;28;20042;-66
2022/09/11 00:12:23;;;;;;;14.13;7.28;;;;;;;;;;5000464;28;20487;-66
2022/09/11 00:14:50;;;;;;;16.48;6.32;;;;;;;;;;5007990;28;20026;-66
2022/09/11 00:17:17;;;;;;;13.90;7.07;;;;;;;;;;5006176;28;20038;-66
2022/09/11 00:19:43;;;;;;;16.55;7.03;;;;;;;;;;5005873;28;20419;-66
2022/09/11 00:22:10;;;;;;;15.77;7.63;;;;;;;;;;5001987;28;20389;-66
2022/09/11 00:24:36;;;;;;;14.02;6.40;;;;;;;;;;4998889;28;20026;-66
2022/09/11 00:27:02;;;;;;;15.38;6.82;;;;;;;;;;5008421;28;20096;-66
2022/09/11 00:29:28;;;;;;;16.42;6.72;;;;;;;;;;4996231;28;20029;-66
2022/09/11 00:31:56;;;;;;;13.68;6.95;;;;;;;;;;5036110;28;20093;-66
2022/09/11 00:34:22;;;;;;;16.08;6.78;;;;;;;;;;5003531;28;20401;-66
2022/09/11 00:36:51;;;;;;;17.17;7.93;;;;;;;;;;5028563;28;20560;-66
2022/09/11 00:39:17;;;;;;;12.65;7.78;;;;;;;;;;5015272;28;20033;-66
2022/09/11 00:41:46;;;;;;;13.60;7.05;;;;;;;;;;5038197;28;20018;-66
2022/09/11 00:44:12;;;;;;;11.00;7.13;;;;;;;;;;5001340;28;20028;-66
2022/09/11 00:46:43;;;;;;;12.13;7.22;;;;;;;;;;4998907;28;20026;-66
2022/09/11 00:49:25;;;;;;;13.15;6.40;;;;;;;;;;5006911;28;20030;-66
2022/09/11 00:51:57;;;;;;;14.02;6.30;;;;;;;;;;4998708;28;20502;-66
2022/09/11 00:54:28;;;;;;;11.07;5.97;;;;;;;;;;5014301;28;20128;-66
2022/09/11 00:56:56;;;;;;;17.50;6.75;;;;;;;;;;5009188;28;20026;-66
2022/09/11 00:59:25;;;;;;;15.88;7.18;;;;;;;;;;5026343;28;20060;-66
2022/09/11 01:01:52;;;;;;;12.80;6.15;;;;;;;;;;5013280;28;20029;-66
2022/09/11 01:04:19;;;;;;;14.88;7.05;;;;;;;;;;5009867;28;20019;-66
2022/09/11 01:06:45;;;;;;;10.95;5.97;;;;;;;;;;4992005;28;20038;-66
2022/09/11 01:09:12;;;;;;;13.45;6.35;;;;;;;;;;4990176;28;20050;-66
2022/09/11 01:11:44;;;;;;;14.35;6.32;;;;;;;;;;5010568;28;20418;-66
2022/09/11 01:14:14;;;;;;;14.90;7.95;;;;;;;;;;4990903;28;20034;-66
2022/09/11 01:16:43;;;;;;;11.70;6.70;;;;;;;;;;4991775;28;20076;-66
2022/09/11 01:19:09;;;;;;;12.15;6.93;;;;;;;;;;5011403;28;20029;-66
2022/09/11 01:21:53;;;;;;;12.68;6.90;;;;;;;;;;5014708;28;20030;-66
2022/09/11 01:24:22;;;;;;;14.95;6.80;;;;;;;;;;5046087;28;20029;-66
2022/09/11 01:26:48;;;;;;;13.88;6.93;;;;;;;;;;5013601;28;20446;-66
2022/09/11 01:29:14;;;;;;;11.73;6.50;;;;;;;;;;5045858;28;20026;-66
2022/09/11 01:31:45;;;;;;;11.73;7.05;;;;;;;;;;5014535;28;20028;-66
2022/09/11 01:34:16;;;;;;;14.45;6.57;;;;;;;;;;5046370;28;20053;-66
2022/09/11 01:36:46;;;;;;;9.43;6.18;;;;;;;;;;5034335;28;20030;-66
2022/09/11 01:39:13;;;;;;;20.38;7.35;;;;;;;;;;5009695;28;20026;-66
2022/09/11 01:41:59;;;;;;;12.77;6.55;;;;;;;;;;5010059;28;20026;-66
2022/09/11 01:45:00;;;;;;;13.07;6.88;;;;;;;;;;5003079;28;20037;-66
2022/09/11 01:47:28;;;;;;;13.65;7.57;;;;;;;;;;4992102;28;20095;-66
2022/09/11 01:50:02;;;;;;;16.88;7.18;;;;;;;;;;4981732;28;20030;-66
2022/09/11 01:52:31;;;;;;;18.17;6.18;;;;;;;;;;5005395;28;20065;-66
2022/09/11 01:55:01;;;;;;;11.43;6.13;;;;;;;;;;4995219;28;20034;-66
2022/09/11 01:57:47;;;;;;;13.68;6.93;;;;;;;;;;4995442;28;20537;-66
2022/09/11 02:00:15;;;;;;;14.45;6.05;;;;;;;;;;5007316;28;20054;-66
2022/09/11 02:03:02;;;;;;;16.02;6.57;;;;;;;;;;5000950;28;20034;-66
2022/09/11 02:05:35;;;;;;;12.88;5.75;;;;;;;;;;4985248;28;20076;-66
2022/09/11 02:08:20;;;;;;;14.43;6.97;;;;;;;;;;4981942;28;20069;-66
2022/09/11 02:10:51;;;;;;;12.13;6.38;;;;;;;;;;4995395;28;20054;-66
2022/09/11 02:13:21;;;;;;;14.55;6.47;;;;;;;;;;4995631;28;20405;-66
2022/09/11 02:15:55;;;;;;;12.50;6.93;;;;;;;;;;4979510;28;20112;-66
2022/09/11 02:18:57;;;;;;;11.55;6.07;;;;;;;;;;5006806;28;20041;-66
2022/09/11 02:21:23;;;;;;;12.93;7.15;;;;;;;;;;4940767;28;20512;-66
2022/09/11 02:23:49;;;;;;;12.77;6.70;;;;;;;;;;4949962;29;20115;-66
2022/09/11 02:26:17;;;;;;;10.75;6.57;;;;;;;;;;4925467;29;20046;-66
2022/09/11 02:28:43;;;;;;;10.85;7.32;;;;;;;;;;4942274;29;20424;-66
2022/09/11 02:31:09;;;;;;;13.68;6.80;;;;;;;;;;4934676;28;20051;-66
2022/09/11 02:33:37;;;;;;;10.05;6.20;;;;;;;;;;4952339;28;20515;-66
2022/09/11 02:36:21;;;;;;;10.30;6.40;;;;;;;;;;4939369;29;20114;-66
2022/09/11 02:38:59;;;;;;;12.77;6.38;;;;;;;;;;4926005;29;20409;-66
2022/09/11 02:41:36;;;;;;;11.18;6.43;;;;;;;;;;4933434;29;20039;-66
2022/09/11 02:44:15;;;;;;;8.70;5.30;;;;;;;;;;4932289;29;20059;-66
2022/09/11 02:47:03;;;;;;;13.70;6.13;;;;;;;;;;4929705;29;20042;-66
2022/09/11 02:49:39;;;;;;;11.00;6.50;;;;;;;;;;4949670;29;20100;-66
2022/09/11 02:52:26;;;;;;;13.52;6.20;;;;;;;;;;4923119;29;20408;-66
2022/09/11 02:54:58;;;;;;;17.58;6.03;;;;;;;;;;4962535;28;20030;-66
2022/09/11 02:57:29;;;;;;;13.05;5.40;;;;;;;;;;5014589;28;20124;-66
2022/09/11 02:59:59;;;;;;;11.35;6.75;;;;;;;;;;5012618;28;20022;-66
2022/09/11 03:02:26;;;;;;;11.90;6.10;;;;;;;;;;5011878;28;20030;-66
2022/09/11 03:04:53;;;;;;;12.52;6.50;;;;;;;;;;5000498;28;20018;-66
2022/09/11 03:07:19;;;;;;;15.52;6.97;;;;;;;;;;5013755;28;20517;-66
2022/09/11 03:09:46;;;;;;;13.98;6.85;;;;;;;;;;5027808;28;20509;-66
2022/09/11 03:12:19;;;;;;;12.32;6.50;;;;;;;;;;5039446;28;20037;-66
2022/09/11 03:14:48;;;;;;;9.15;6.90;;;;;;;;;;5034016;28;20049;-66
2022/09/11 03:17:15;;;;;;;10.60;6.53;;;;;;;;;;5005938;28;20041;-66
2022/09/11 03:19:41;;;;;;;15.13;6.38;;;;;;;;;;5027783;28;20073;-66
2022/09/11 03:22:07;;;;;;;12.23;6.38;;;;;;;;;;5006862;28;20015;-66
2022/09/11 03:24:34;;;;;;;11.82;6.97;;;;;;;;;;5001582;28;20022;-66
2022/09/11 03:27:00;;;;;;;14.05;6.90;;;;;;;;;;5032334;28;20046;-66
2022/09/11 03:29:27;;;;;;;12.50;7.15;;;;;;;;;;5007390;28;20040;-66
2022/09/11 03:31:57;;;;;;;14.25;7.18;;;;;;;;;;4996214;28;20018;-66
2022/09/11 03:34:23;;;;;;;16.15;6.25;;;;;;;;;;5021002;28;20037;-66
2022/09/11 03:36:49;;;;;;;13.65;6.70;;;;;;;;;;5034414;28;20044;-66
2022/09/11 03:39:17;;;;;;;18.23;8.25;;;;;;;;;;5030439;28;20036;-66
2022/09/11 03:41:43;;;;;;;13.07;6.72;;;;;;;;;;5040414;28;20180;-66
2022/09/11 03:44:11;;;;;;;9.07;6.20;;;;;;;;;;4997364;28;20022;-66
2022/09/11 03:46:37;;;;;;;11.85;6.80;;;;;;;;;;5004272;28;20536;-66
2022/09/11 03:49:05;;;;;;;14.63;6.88;;;;;;;;;;5003305;28;20397;-66
2022/09/11 03:51:31;;;;;;;14.27;8.57;;;;;;;;;;5028892;28;20038;-66
2022/09/11 03:54:01;;;;;;;16.60;7.80;;;;;;;;;;5008839;28;20056;-66
2022/09/11 03:56:29;;;;;;;18.08;7.30;;;;;;;;;;4998052;28;20116;-66
2022/09/11 03:58:56;;;;;;;14.57;6.95;;;;;;;;;;5033399;28;20629;-66
2022/09/11 04:01:23;;;;;;;13.90;6.90;;;;;;;;;;5004382;28;20112;-66
2022/09/11 04:03:50;;;;;;;18.52;8.32;;;;;;;;;;5020729;28;20081;-66
2022/09/11 04:06:34;;;;;;;12.52;8.13;;;;;;;;;;4998365;28;20032;-66
2022/09/11 04:09:01;;;;;;;15.63;7.53;;;;;;;;;;5032795;28;20058;-66
2022/09/11 04:11:29;;;;;;;21.45;7.47;;;;;;;;;;5004477;28;20378;-66
2022/09/11 04:13:55;;;;;;;16.17;7.18;;;;;;;;;;5025748;28;20125;-66
2022/09/11 04:16:25;;;;;;;14.60;7.00;;;;;;;;;;5002705;28;20540;-66
2022/09/11 04:18:54;;;;;;;16.77;7.70;;;;;;;;;;5035193;28;20545;-66
2022/09/11 04:21:22;;;;;;;18.25;8.20;;;;;;;;;;5005649;28;20161;-66
2022/09/11 04:23:53;;;;;;;18.95;7.88;;;;;;;;;;5038607;28;20034;-66
2022/09/11 04:26:20;;;;;;;13.05;7.25;;;;;;;;;;5039512;28;20033;-66
2022/09/11 04:28:51;;;;;;;12.70;7.70;;;;;;;;;;4999767;28;20022;-66
2022/09/11 04:31:18;;;;;;;11.88;7.13;;;;;;;;;;4998523;28;20077;-66
2022/09/11 04:33:45;;;;;;;15.32;7.43;;;;;;;;;;5008566;28;20030;-66
2022/09/11 04:36:16;;;;;;;17.98;7.95;;;;;;;;;;5010240;28;20088;-66
2022/09/11 04:38:42;;;;;;;12.45;7.97;;;;;;;;;;5010192;28;20556;-66
2022/09/11 04:41:11;;;;;;;12.07;7.55;;;;;;;;;;5006720;28;20085;-66
2022/09/11 04:43:38;;;;;;;16.73;8.48;;;;;;;;;;5017810;28;20025;-66
2022/09/11 04:46:10;;;;;;;16.58;8.07;;;;;;;;;;5008360;28;20104;-66
2022/09/11 04:48:37;;;;;;;14.40;7.93;;;;;;;;;;5013350;28;20030;-66
2022/09/11 04:51:05;;;;;;;11.88;8.18;;;;;;;;;;5026855;28;20121;-66
2022/09/11 04:53:31;;;;;;;18.23;8.43;;;;;;;;;;5012863;28;20030;-66
2022/09/11 04:56:08;;;;;;;13.20;7.40;;;;;;;;;;5030698;28;20039;-66
2022/09/11 04:58:41;;;;;;;15.20;8.32;;;;;;;;;;5035310;28;20030;-66
2022/09/11 05:01:13;;;;;;;16.27;8.52;;;;;;;;;;5045470;28;20033;-66
2022/09/11 05:03:40;;;;;;;16.08;7.78;;;;;;;;;;5036171;28;20026;-66
2022/09/11 05:06:07;;;;;;;11.95;7.65;;;;;;;;;;5014490;28;20022;-66
2022/09/11 05:08:34;;;;;;;16.00;7.28;;;;;;;;;;5043838;28;20390;-67
2022/09/11 05:11:05;;;;;;;16.10;8.40;;;;;;;;;;5045666;28;20080;-66
2022/09/11 05:13:32;;;;;;;12.13;7.38;;;;;;;;;;5025559;28;20040;-66
2022/09/11 05:16:05;;;;;;;14.40;7.82;;;;;;;;;;5002019;28;20120;-66
2022/09/11 05:18:33;;;;;;;11.88;7.25;;;;;;;;;;5009421;28;20033;-66
2022/09/11 05:21:21;;;;;;;18.65;8.40;;;;;;;;;;5012718;28;20022;-66
2022/09/11 05:23:48;;;;;;;13.43;7.03;;;;;;;;;;5014313;28;20045;-66
2022/09/11 05:26:19;;;;;;;11.73;7.60;;;;;;;;;;5005268;28;20437;-66
2022/09/11 05:28:45;;;;;;;19.90;7.82;;;;;;;;;;5006544;28;20049;-66
2022/09/11 05:31:14;;;;;;;11.80;7.63;;;;;;;;;;4995921;28;20096;-66
2022/09/11 05:33:41;;;;;;;14.77;7.90;;;;;;;;;;5040103;28;20105;-66
2022/09/11 05:36:08;;;;;;;17.90;7.15;;;;;;;;;;5007695;28;20562;-66
2022/09/11 05:38:38;;;;;;;14.50;7.60;;;;;;;;;;5012950;28;20091;-66
2022/09/11 05:41:08;;;;;;;16.85;7.78;;;;;;;;;;5042067;28;20018;-66
2022/09/11 05:43:37;;;;;;;14.25;7.40;;;;;;;;;;5039754;28;20030;-66
2022/09/11 05:46:03;;;;;;;12.50;6.82;;;;;;;;;;5004994;28;20407;-66
2022/09/11 05:48:35;;;;;;;11.70;6.95;;;;;;;;;;5004154;28;20466;-66
2022/09/11 05:51:05;;;;;;;10.50;6.78;;;;;;;;;;5002858;28;20026;-66
2022/09/11 05:53:32;;;;;;;12.05;7.10;;;;;;;;;;5009481;28;20117;-66
2022/09/11 05:56:09;;;;;;;12.82;6.45;;;;;;;;;;5005237;28;20513;-66
2022/09/11 05:58:36;;;;;;;11.60;6.45;;;;;;;;;;5004492;28;20394;-66
2022/09/11 06:01:07;;;;;;;17.60;6.95;;;;;;;;;;5007902;28;20038;-66
2022/09/11 06:03:35;;;;;;;10.63;6.82;;;;;;;;;;5038280;28;20116;-66
2022/09/11 06:06:02;;;;;;;10.85;7.55;;;;;;;;;;5043921;28;20030;-66
2022/09/11 06:08:32;;;;;;;14.27;7.75;;;;;;;;;;5037842;28;20048;-66
2022/09/11 06:10:58;;;;;;;13.73;7.20;;;;;;;;;;5043513;28;20056;-66
2022/09/11 06:13:25;;;;;;;10.60;6.97;;;;;;;;;;4996122;28;20474;-66
2022/09/11 06:15:52;;;;;;;14.23;7.50;;;;;;;;;;5007426;28;20030;-66
2022/09/11 06:18:18;;;;;;;10.32;7.15;;;;;;;;;;5028368;28;20022;-66
2022/09/11 06:20:59;;;;;;;17.73;8.35;;;;;;;;;;5007727;28;20038;-66
2022/09/11 06:23:27;;;;;;;13.02;7.95;;;;;;;;;;5021290;28;20035;-66
2022/09/11 06:26:01;;;;;;;20.17;7.57;;;;;;;;;;5012064;28;20109;-66
2022/09/11 06:28:28;;;;;;;11.43;6.97;;;;;;;;;;5019836;28;20057;-66
2022/09/11 06:30:57;;;;;;;13.48;7.78;;;;;;;;;;5007747;28;20033;-72
2022/09/11 06:33:24;;;;;;;14.55;7.05;;;;;;;;;;5029860;28;20033;-67
2022/09/11 06:36:01;;;;;;;18.15;6.90;;;;;;;;;;5011076;28;20405;-67
2022/09/11 06:38:28;;;;;;;13.70;7.38;;;;;;;;;;5005614;28;20084;-66
2022/09/11 06:40:55;;;;;;;9.43;7.07;;;;;;;;;;5003139;28;20117;-67
2022/09/11 06:43:21;;;;;;;10.98;7.05;;;;;;;;;;5011398;28;20674;-66
2022/09/11 06:45:47;;;;;;;15.95;7.60;;;;;;;;;;5022321;28;20033;-66
2022/09/11 06:48:15;;;;;;;15.23;7.88;;;;;;;;;;5042374;28;20037;-66
2022/09/11 06:50:42;;;;;;;9.98;7.18;;;;;;;;;;5007400;28;20026;-66
2022/09/11 06:53:09;;;;;;;11.15;6.57;;;;;;;;;;5022207;28;20401;-66
2022/09/11 06:55:39;;;;;;;9.50;6.35;;;;;;;;;;5023462;28;20017;-66
2022/09/11 06:58:10;;;;;;;11.32;6.10;;;;;;;;;;5007818;28;20057;-66
2022/09/11 07:00:36;;;;;;;19.75;6.78;;;;;;;;;;5002688;28;20064;-66
2022/09/11 07:03:03;;;;;;;18.33;6.55;;;;;;;;;;5008594;28;20071;-66
2022/09/11 07:05:29;;;;;;;10.65;6.50;;;;;;;;;;5007451;28;20399;-66
2022/09/11 07:07:58;;;;;;;10.82;5.85;;;;;;;;;;5006168;28;20026;-66
2022/09/11 07:10:29;;;;;;;12.40;6.75;;;;;;;;;;5038418;28;20030;-66
2022/09/11 07:12:58;;;;;;;12.93;6.93;;;;;;;;;;5026650;28;20490;-66
2022/09/11 07:15:24;;;;;;;9.27;6.15;;;;;;;;;;5000058;28;20316;-66
2022/09/11 07:17:51;;;;;;;11.00;6.05;;;;;;;;;;5001985;28;20030;-66
2022/09/11 07:20:18;;;;;;;10.38;5.80;;;;;;;;;;5007626;28;20021;-66
2022/09/11 07:22:45;;;;;;;12.20;6.40;;;;;;;;;;5007832;28;20018;-66
2022/09/11 07:25:13;;;;;;;10.48;5.63;;;;;;;;;;5030079;28;20027;-66
2022/09/11 07:27:41;;;;;;;11.93;5.85;;;;;;;;;;5003396;28;20041;-66
2022/09/11 07:30:10;;;;;;;11.05;6.10;;;;;;;;;;5005590;28;20490;-66
2022/09/11 07:32:38;;;;;;;11.85;5.88;;;;;;;;;;5034928;28;20026;-66
2022/09/11 07:35:05;;;;;;;11.73;5.28;;;;;;;;;;5024137;28;20034;-66
2022/09/11 07:37:31;;;;;;;10.02;6.20;;;;;;;;;;5002843;28;20517;-66
2022/09/11 07:39:58;;;;;;;10.82;5.57;;;;;;;;;;5017050;28;20031;-66
2022/09/11 07:42:27;;;;;;;9.02;4.85;;;;;;;;;;5033356;28;20395;-66
2022/09/11 07:44:54;;;;;;;11.60;4.90;;;;;;;;;;5020828;28;20033;-66
2022/09/11 07:47:20;;;;;;;7.18;4.20;;;;;;;;;;5035725;28;20032;-66
2022/09/11 07:49:50;;;;;;;7.68;4.13;;;;;;;;;;5003179;28;20069;-66
2022/09/11 07:52:19;;;;;;;7.78;4.07;;;;;;;;;;5037845;28;20112;-66
2022/09/11 07:54:55;;;;;;;6.47;3.70;;;;;;;;;;5035285;28;20101;-66
2022/09/11 07:57:26;;;;;;;6.63;3.00;;;;;;;;;;5003958;28;20033;-66
2022/09/11 07:59:52;;;;;;;6.90;3.38;;;;;;;;;;5006278;28;20033;-66
2022/09/11 08:02:19;;;;;;;6.57;3.35;;;;;;;;;;5024637;28;20026;-66
2022/09/11 08:04:46;;;;;;;4.43;2.35;;;;;;;;;;5029872;28;20033;-66
2022/09/11 08:07:12;;;;;;;4.55;2.33;;;;;;;;;;5002474;28;20072;-67
2022/09/11 08:09:38;;;;;;;3.38;2.00;;;;;;;;;;5007875;28;20061;-67
2022/09/11 08:12:05;;;;;;;4.35;1.88;;;;;;;;;;5003036;28;20033;-67
2022/09/11 08:14:35;;;;;;;4.38;1.52;;;;;;;;;;5021626;28;20434;-67
2022/09/11 08:17:17;;;;;;;4.78;1.40;;;;;;;;;;5022073;28;20514;-67
2022/09/11 08:19:44;;;;;;;3.03;1.73;;;;;;;;;;5024602;28;20033;-67
2022/09/11 08:22:11;;;;;;;4.10;1.60;;;;;;;;;;5037467;28;20025;-67
2022/09/11 08:24:42;;;;;;;3.17;1.30;;;;;;;;;;5036438;28;20124;-67
2022/09/11 08:27:10;;;;;;;1.98;1.20;;;;;;;;;;5006109;28;20405;-67
2022/09/11 08:29:40;;;;;;;1.83;1.20;;;;;;;;;;5001222;28;20501;-67
2022/09/11 08:32:07;;;;;;;2.95;1.05;;;;;;;;;;5025354;28;20145;-67
2022/09/11 08:34:34;;;;;;;1.05;0.90;;;;;;;;;;5037968;28;20101;-67
2022/09/11 08:37:00;;;;;;;1.33;0.70;;;;;;;;;;5025731;28;20037;-67
2022/09/11 08:39:28;;;;;;;1.00;0.73;;;;;;;;;;5040794;28;20080;-67
2022/09/11 08:42:13;;;;;;;2.25;0.60;;;;;;;;;;5022064;28;20030;-67
2022/09/11 08:44:53;;;;;;;2.15;0.70;;;;;;;;;;5011366;28;20028;-67
2022/09/11 08:47:34;;;;;;;0.77;0.63;;;;;;;;;;5004968;28;20033;-67
2022/09/11 08:50:06;;;;;;;1.77;0.60;;;;;;;;;;5012996;28;20061;-67
2022/09/11 08:52:34;;;;;;;1.05;0.93;;;;;;;;;;5008988;28;20401;-67
2022/09/11 08:55:01;;;;;;;1.55;0.82;;;;;;;;;;5013733;28;20025;-67
2022/09/11 08:57:34;;;;;;;2.15;0.80;;;;;;;;;;5007186;28;20034;-67
2022/09/11 09:00:11;;;;;;;2.20;0.82;;;;;;;;;;5021572;28;20475;-67
2022/09/11 09:03:11;;;;;;;0.75;0.50;;;;;;;;;;5006235;28;20038;-67
2022/09/11 09:05:56;;;;;;;0.75;0.73;;;;;;;;;;5043013;28;20030;-67
2022/09/11 09:08:46;;;;;;;5.07;0.60;;;;;;;;;;5007731;28;20042;-67
2022/09/11 09:11:28;;;;;;;0.50;0.50;;;;;;;;;;5034874;28;20144;-67
2022/09/11 09:14:34;;;;;;;2.25;0.70;;;;;;;;;;5007309;28;20417;-66
2022/09/11 09:17:01;;;;;;;1.27;0.70;;;;;;;;;;4973181;28;20034;-67
2022/09/11 09:19:38;;;;;;;1.35;0.70;;;;;;;;;;5003512;28;20058;-67
2022/09/11 09:22:05;;;;;;;0.90;0.50;;;;;;;;;;4968430;28;20049;-67
2022/09/11 09:24:40;;;;;;;1.60;0.50;;;;;;;;;;5002970;28;20018;-67
2022/09/11 09:27:06;;;;;;;;;;;;;;;;;;4986170;28;20175;-67
2022/09/11 09:29:36;;;;;;;2.38;0.52;;;;;;;;;;4967363;28;19910;-67
2022/09/11 09:32:15;;;;;;;1.00;0.60;;;;;;;;;;4964980;28;20539;-67
2022/09/11 09:34:44;;;;;;;0.55;0.40;;;;;;;;;;4964231;28;20098;-67
2022/09/11 09:37:20;;;;;;;0.75;0.30;;;;;;;;;;4994215;28;20049;-67
2022/09/11 09:39:47;;;;;;;0.82;0.60;;;;;;;;;;4983799;28;20035;-66
2022/09/11 09:42:14;;;;;;;0.95;0.50;;;;;;;;;;4965936;28;20038;-66
2022/09/11 09:45:00;;;;;;;1.67;0.60;;;;;;;;;;4969017;28;20034;-66
2022/09/11 09:47:26;;;;;;;1.95;0.50;;;;;;;;;;4990578;28;20084;-66
2022/09/11 09:49:52;;;;;;;0.40;0.40;;;;;;;;;;5002913;28;20022;-66
2022/09/11 09:52:23;;;;;;;0.68;0.40;;;;;;;;;;5009769;28;20025;-67
2022/09/11 09:55:09;;;;;;;0.40;0.35;;;;;;;;;;5006332;28;20065;-66
2022/09/11 09:57:38;;;;;;;0.40;0.30;;;;;;;;;;5004872;28;20405;-67
2022/09/11 10:00:16;;;;;;;1.17;0.40;;;;;;;;;;5006578;28;20037;-67
2022/09/11 10:02:42;;;;;;;1.65;0.52;;;;;;;;;;5008091;28;20061;-67
2022/09/11 10:05:24;;;;;;;0.60;0.50;;;;;;;;;;4999970;28;20022;-67
2022/09/11 10:07:55;;;;;;;0.77;0.50;;;;;;;;;;5009393;28;20081;-67
2022/09/11 10:10:26;;;;;;;0.40;0.40;;;;;;;;;;5005183;28;20449;-67
2022/09/11 10:12:53;;;;;;;0.47;0.40;;;;;;;;;;5001182;28;20112;-67
2022/09/11 10:15:21;;;;;;;0.32;0.32;;;;;;;;;;5008162;28;20022;-67
2022/09/11 10:17:48;;;;;;;2.05;0.40;;;;;;;;;;5009786;28;20018;-67
2022/09/11 10:20:18;;;;;;;0.40;0.40;;;;;;;;;;4996492;28;20022;-67
2022/09/11 10:22:44;;;;;;;0.40;0.40;;;;;;;;;;5010011;28;20034;-67
2022/09/11 10:25:12;;;;;;;0.60;0.50;;;;;;;;;;5004666;28;21361;-67
2022/09/11 10:27:58;;;;;;;0.73;0.40;;;;;;;;;;5005947;28;20049;-66
2022/09/11 10:30:31;;;;;;;1.17;0.57;;;;;;;;;;5010411;28;20082;-67
2022/09/11 10:32:57;;;;;;;2.80;0.43;;;;;;;;;;5008063;28;20025;-67
2022/09/11 10:35:26;;;;;;;0.70;0.40;;;;;;;;;;5006948;28;20033;-67
2022/09/11 10:38:11;;;;;;;0.98;0.60;;;;;;;;;;5004280;28;20502;-67
2022/09/11 10:40:38;;;;;;;0.30;0.30;;;;;;;;;;5000130;28;20643;-67
2022/09/11 10:43:06;;;;;;;0.60;0.45;;;;;;;;;;5001993;28;20512;-66
2022/09/11 10:45:32;;;;;;;1.67;0.60;;;;;;;;;;4998825;28;20148;-66
2022/09/11 10:48:13;;;;;;;0.70;0.50;;;;;;;;;;5004119;28;20021;-67
2022/09/11 10:50:40;;;;;;;1.88;0.40;;;;;;;;;;5006010;28;20030;-67
2022/09/11 10:53:12;;;;;;;3.63;0.50;;;;;;;;;;5005255;28;20394;-66
2022/09/11 10:55:42;;;;;;;0.80;0.43;;;;;;;;;;5007427;28;20033;-66
2022/09/11 10:58:12;;;;;;;0.45;0.38;;;;;;;;;;5003416;28;20512;-67
2022/09/11 11:00:38;;;;;;;1.92;0.47;;;;;;;;;;4997420;28;20158;-66
2022/09/11 11:03:09;;;;;;;0.80;0.47;;;;;;;;;;5001298;28;20026;-67
2022/09/11 11:05:44;;;;;;;0.60;0.60;;;;;;;;;;5008059;28;20025;-67
2022/09/11 11:08:13;;;;;;;0.65;0.38;;;;;;;;;;5003918;28;20083;-66
2022/09/11 11:10:43;;;;;;;1.38;0.50;;;;;;;;;;5004651;28;20509;-67
2022/09/11 11:13:30;;;;;;;0.65;0.50;;;;;;;;;;5008459;28;20058;-67
2022/09/11 11:15:56;;;;;;;0.82;0.60;;;;;;;;;;5003038;28;20033;-66
2022/09/11 11:18:22;;;;;;;0.98;0.57;;;;;;;;;;5001880;28;20027;-67
2022/09/11 11:20:53;;;;;;;0.88;0.50;;;;;;;;;;5008569;28;20505;-67
2022/09/11 11:23:23;;;;;;;0.80;0.52;;;;;;;;;;5004653;28;20379;-67
2022/09/11 11:25:56;;;;;;;1.08;0.68;;;;;;;;;;5000120;28;20026;-67
2022/09/11 11:28:22;;;;;;;4.93;0.80;;;;;;;;;;5003268;28;20110;-66
2022/09/11 11:30:58;;;;;;;9.25;0.68;;;;;;;;;;5005882;28;20046;-66
2022/09/11 11:33:41;;;;;;;0.57;0.57;;;;;;;;;;5006105;28;20034;-67
2022/09/11 11:36:09;;;;;;;1.95;0.68;;;;;;;;;;5004902;28;20026;-67
2022/09/11 11:38:38;;;;;;;2.05;0.80;;;;;;;;;;5001565;28;20026;-67
2022/09/11 11:41:13;;;;;;;0.80;0.57;;;;;;;;;;5003670;28;20037;-67
2022/09/11 11:43:40;;;;;;;2.28;0.80;;;;;;;;;;5005404;28;20030;-67
2022/09/11 11:46:14;;;;;;;2.35;0.70;;;;;;;;;;5006155;28;20030;-67
2022/09/11 11:48:45;;;;;;;3.17;0.93;;;;;;;;;;5004190;28;20518;-67
2022/09/11 11:51:16;;;;;;;1.60;0.70;;;;;;;;;;5005879;28;20395;-67
2022/09/11 11:53:47;;;;;;;2.10;0.60;;;;;;;;;;5004773;28;20057;-67
2022/09/11 11:56:27;;;;;;;1.02;0.80;;;;;;;;;;5006927;28;20452;-67
2022/09/11 11:59:03;;;;;;;1.40;0.80;;;;;;;;;;4999730;28;20094;-67
2022/09/11 12:01:38;;;;;;;2.38;0.70;;;;;;;;;;5005452;28;20425;-66
2022/09/11 12:04:11;;;;;;;4.57;0.82;;;;;;;;;;5008071;28;20555;-66
2022/09/11 12:06:37;;;;;;;4.45;0.63;;;;;;;;;;5006547;28;20137;-66
2022/09/11 12:09:04;;;;;;;2.58;0.77;;;;;;;;;;4999690;28;20100;-66
2022/09/11 12:11:32;;;;;;;2.42;0.50;;;;;;;;;;5002973;28;20379;-67
2022/09/11 12:13:58;;;;;;;2.35;0.60;;;;;;;;;;5002269;28;20082;-67
2022/09/11 12:16:43;;;;;;;1.27;0.60;;;;;;;;;;4999776;28;20482;-66
2022/09/11 12:19:19;;;;;;;3.47;0.85;;;;;;;;;;4995743;28;20402;-67
2022/09/11 12:21:54;;;;;;;1.20;0.82;;;;;;;;;;4995952;28;20037;-67
2022/09/11 12:24:21;;;;;;;1.08;0.68;;;;;;;;;;4996880;28;20411;-67
2022/09/11 12:27:07;;;;;;;2.72;0.80;;;;;;;;;;4998558;28;20030;-67
2022/09/11 12:29:42;;;;;;;3.55;0.85;;;;;;;;;;5001691;28;20064;-66
2022/09/11 12:32:15;;;;;;;1.88;0.60;;;;;;;;;;4996944;28;20041;-66
2022/09/11 12:34:41;;;;;;;;;;;;;;;;;;4994874;28;20053;-66
2022/09/11 12:37:33;;;;;;;0.73;0.60;;;;;;;;;;4996512;28;19917;-66
2022/09/11 12:40:05;;;;;;;3.27;1.17;;;;;;;;;;4994783;28;20084;-66
2022/09/11 12:42:31;;;;;;;2.45;0.90;;;;;;;;;;4996873;28;20057;-66
2022/09/11 12:44:58;;;;;;;0.80;0.75;;;;;;;;;;4996080;28;20034;-66
2022/09/11 12:47:24;;;;;;;1.08;0.88;;;;;;;;;;5007372;28;20478;-66
2022/09/11 12:49:53;;;;;;;1.60;0.80;;;;;;;;;;5001528;28;20093;-66
2022/09/11 12:52:24;;;;;;;1.65;1.00;;;;;;;;;;5003651;28;20057;-66
2022/09/11 12:54:51;;;;;;;0.70;0.65;;;;;;;;;;5006134;28;20022;-66
2022/09/11 12:57:20;;;;;;;3.17;1.00;;;;;;;;;;5007215;28;20068;-66
2022/09/11 12:59:51;;;;;;;1.90;0.75;;;;;;;;;;5000130;28;20065;-66
2022/09/11 13:02:30;;;;;;;1.48;0.82;;;;;;;;;;5005005;28;20487;-66
2022/09/11 13:04:57;;;;;;;3.22;1.10;;;;;;;;;;5001418;28;20036;-66
2022/09/11 13:07:42;;;;;;;3.67;1.08;;;;;;;;;;5004836;28;20052;-66
2022/09/11 13:10:20;;;;;;;1.65;1.02;;;;;;;;;;5000946;28;20042;-66
2022/09/11 13:12:49;;;;;;;1.95;1.05;;;;;;;;;;5023650;28;20422;-66
2022/09/11 13:15:31;;;;;;;3.22;1.02;;;;;;;;;;5040736;28;20037;-66
2022/09/11 13:17:57;;;;;;;2.38;1.20;;;;;;;;;;5006402;28;20044;-66
2022/09/11 13:20:23;;;;;;;2.60;1.08;;;;;;;;;;5008915;28;20466;-66
2022/09/11 13:22:50;;;;;;;2.97;1.17;;;;;;;;;;5006148;28;20413;-66
2022/09/11 13:25:16;;;;;;;2.50;1.30;;;;;;;;;;5007666;28;20022;-66
2022/09/11 13:27:46;;;;;;;1.60;1.08;;;;;;;;;;5010787;28;20124;-66
2022/09/11 13:30:18;;;;;;;2.55;1.42;;;;;;;;;;5009320;28;20038;-66
2022/09/11 13:32:47;;;;;;;2.28;1.40;;;;;;;;;;5005937;28;20041;-66
2022/09/11 13:35:18;;;;;;;1.80;1.30;;;;;;;;;;5010549;28;20025;-66
2022/09/11 13:37:47;;;;;;;5.47;1.65;;;;;;;;;;5008796;28;20494;-67
2022/09/11 13:40:23;;;;;;;2.13;1.40;;;;;;;;;;5004939;28;20034;-66
2022/09/11 13:42:50;;;;;;;1.83;1.30;;;;;;;;;;5003816;28;20030;-66
2022/09/11 13:45:17;;;;;;;2.30;1.58;;;;;;;;;;5011305;28;20032;-67
2022/09/11 13:47:44;;;;;;;2.10;1.50;;;;;;;;;;5010029;28;20371;-67
2022/09/11 13:50:11;;;;;;;3.63;1.83;;;;;;;;;;5008924;28;20033;-67
2022/09/11 13:52:39;;;;;;;3.13;1.50;;;;;;;;;;5003210;28;20555;-66
2022/09/11 13:55:10;;;;;;;4.55;1.35;;;;;;;;;;5009998;28;20049;-66
2022/09/11 13:57:49;;;;;;;3.58;1.70;;;;;;;;;;5006340;28;20502;-66
2022/09/11 14:00:34;;;;;;;2.42;1.50;;;;;;;;;;5008071;28;20037;-67
2022/09/11 14:03:00;;;;;;;2.70;1.60;;;;;;;;;;5010087;28;20034;-67
2022/09/11 14:05:30;;;;;;;3.78;2.00;;;;;;;;;;5012349;28;20014;-67
2022/09/11 14:08:00;;;;;;;3.38;1.73;;;;;;;;;;5006702;28;20092;-67
2022/09/11 14:10:29;;;;;;;1.95;1.52;;;;;;;;;;5008529;28;20113;-67
2022/09/11 14:12:59;;;;;;;4.75;1.63;;;;;;;;;;5008951;28;20113;-67
2022/09/11 14:15:34;;;;;;;2.33;1.40;;;;;;;;;;5003768;28;20026;-67
2022/09/11 14:18:04;;;;;;;4.60;1.83;;;;;;;;;;5005610;28;20482;-67
2022/09/11 14:20:31;;;;;;;2.25;1.45;;;;;;;;;;5007185;28;20441;-67
2022/09/11 14:23:01;;;;;;;3.08;1.50;;;;;;;;;;5001399;28;20393;-67
2022/09/11 14:25:28;;;;;;;3.42;1.83;;;;;;;;;;5003131;28;20025;-67
2022/09/11 14:27:56;;;;;;;3.10;2.03;;;;;;;;;;5010724;28;20080;-67
2022/09/11 14:30:24;;;;;;;2.75;1.80;;;;;;;;;;5006128;28;21186;-67
2022/09/11 14:33:06;;;;;;;2.45;1.70;;;;;;;;;;5009744;28;20037;-66
2022/09/11 14:35:32;;;;;;;2.65;1.85;;;;;;;;;;5004837;28;20056;-67
2022/09/11 14:37:58;;;;;;;3.13;1.65;;;;;;;;;;5009390;28;20030;-67
2022/09/11 14:40:25;;;;;;;3.53;1.92;;;;;;;;;;5005604;28;20022;-67
2022/09/11 14:42:52;;;;;;;3.85;1.92;;;;;;;;;;5006870;28;20513;-67
2022/09/11 14:45:23;;;;;;;3.03;2.08;;;;;;;;;;5007927;28;20018;-67
2022/09/11 14:47:49;;;;;;;4.70;2.38;;;;;;;;;;5003493;28;20064;-67
2022/09/11 14:50:16;;;;;;;2.90;1.80;;;;;;;;;;5009576;28;20032;-67
2022/09/11 14:52:42;;;;;;;3.83;2.00;;;;;;;;;;5005210;28;20097;-67
2022/09/11 14:55:18;;;;;;;2.95;2.40;;;;;;;;;;5007552;28;20029;-67
2022/09/11 14:57:47;;;;;;;3.05;2.45;;;;;;;;;;5007164;28;20034;-67